Time;durP1;ratioP1;P1;durP2;ratioP2;P2;SDS_P1;SDS_P2;PMS_P1;PMS_P2;Temp;Humidity;BMP_temperature;BMP_pressure;BME280_temperature;BME280_humidity;BME280_pressure;Samples;Min_cycle;Max_cycle;Signal;HPM_P1;HPM_P2
2023/08/24 00:01:25;;;;;;;2.53;1.30;;;;;;;23.66;77.61;101120.25;5012613;28;20033;-67
2023/08/24 00:03:51;;;;;;;2.63;1.25;;;;;;;23.63;77.99;101123.88;4995603;28;20038;-64
2023/08/24 00:06:16;;;;;;;10.98;1.50;;;;;;;23.65;77.83;101120.69;5016956;28;20038;-63
2023/08/24 00:08:43;;;;;;;2.00;1.10;;;;;;;23.56;78.05;101115.78;5008792;28;20026;-63
2023/08/24 00:11:11;;;;;;;2.60;1.42;;;;;;;23.53;78.28;101111.16;4996902;28;20071;-64
2023/08/24 00:13:37;;;;;;;3.63;1.15;;;;;;;23.51;78.21;101118.28;4993775;28;20065;-65
2023/08/24 00:16:04;;;;;;;4.72;2.22;;;;;;;23.37;78.87;101118.63;5018461;28;20064;-65
2023/08/24 00:18:29;;;;;;;1.73;1.23;;;;;;;23.29;79.38;101124.28;4997985;28;20022;-64
2023/08/24 00:20:54;;;;;;;1.83;0.95;;;;;;;23.28;79.91;101117.25;5007672;28;20551;-65
2023/08/24 00:23:20;;;;;;;1.52;1.00;;;;;;;23.23;80.08;101117.75;5010690;28;20444;-67
2023/08/24 00:25:45;;;;;;;1.65;0.98;;;;;;;23.22;80.18;101110.72;5013264;28;20541;-63
2023/08/24 00:28:11;;;;;;;2.05;1.20;;;;;;;23.21;79.91;101114.66;4998127;28;20538;-65
2023/08/24 00:30:37;;;;;;;3.35;1.00;;;;;;;23.21;80.33;101113.88;4987971;28;20113;-68
2023/08/24 00:33:03;;;;;;;4.50;1.52;;;;;;;23.23;80.50;101117.75;5011008;28;20413;-65
2023/08/24 00:35:28;;;;;;;1.40;1.10;;;;;;;23.19;80.70;101111.56;5000820;28;20030;-67
2023/08/24 00:37:54;;;;;;;1.70;0.90;;;;;;;23.14;81.31;101120.34;4996675;28;20061;-64
2023/08/24 00:40:19;;;;;;;2.25;1.10;;;;;;;23.07;81.18;101123.22;4995419;28;20549;-64
2023/08/24 00:42:48;;;;;;;1.33;0.98;;;;;;;23.11;81.25;101112.19;5012594;28;20053;-67
2023/08/24 00:45:14;;;;;;;1.77;1.00;;;;;;;23.01;81.46;101119.47;5007837;28;20088;-66
2023/08/24 00:47:42;;;;;;;1.38;0.93;;;;;;;22.96;81.04;101102.69;4985602;28;20030;-64
2023/08/24 00:50:09;;;;;;;1.30;1.05;;;;;;;22.93;81.65;101107.09;4988518;28;20406;-64
2023/08/24 00:52:39;;;;;;;1.50;1.00;;;;;;;22.99;81.72;101102.63;4992322;28;20026;-71
2023/08/24 00:55:05;;;;;;;3.03;1.25;;;;;;;22.96;81.98;101111.72;4979358;28;20040;-64
2023/08/24 00:57:32;;;;;;;3.30;0.98;;;;;;;22.97;81.94;101112.50;5030640;28;20502;-63
2023/08/24 01:00:05;;;;;;;4.30;1.33;;;;;;;22.97;82.17;101109.75;4993901;28;20029;-68
2023/08/24 01:02:33;;;;;;;2.72;1.17;;;;;;;23.02;81.79;101110.03;4991545;28;20037;-63
2023/08/24 01:04:59;;;;;;;1.75;0.82;;;;;;;23.00;81.49;101117.91;5008229;28;20021;-63
2023/08/24 01:07:25;;;;;;;1.55;0.90;;;;;;;22.99;81.44;101110.88;5015538;28;20481;-63
2023/08/24 01:09:53;;;;;;;2.22;1.13;;;;;;;22.96;81.03;101117.22;5015998;28;20061;-65
2023/08/24 01:12:32;;;;;;;1.30;0.95;;;;;;;22.88;81.34;101115.84;4991425;28;20100;-64
2023/08/24 01:15:09;;;;;;;2.58;1.27;;;;;;;22.85;81.87;101124.94;4984619;28;20041;-66
2023/08/24 01:17:38;;;;;;;1.75;0.90;;;;;;;22.91;82.29;101125.97;4997998;28;20123;-65
2023/08/24 01:20:05;;;;;;;3.38;1.23;;;;;;;22.92;82.01;101124.78;5014296;28;20037;-64
2023/08/24 01:22:37;;;;;;;2.85;0.80;;;;;;;22.89;82.06;101125.63;5014482;28;20410;-64
2023/08/24 01:25:15;;;;;;;2.60;1.00;;;;;;;22.95;81.56;101126.69;5004170;28;20037;-64
2023/08/24 01:27:42;;;;;;;1.10;0.80;;;;;;;22.87;81.63;101136.28;5019889;28;20120;-65
2023/08/24 01:30:08;;;;;;;2.45;0.90;;;;;;;22.86;82.42;101122.97;4991334;28;20443;-64
2023/08/24 01:32:34;;;;;;;1.60;1.08;;;;;;;22.89;82.15;101133.88;4994100;28;20482;-64
2023/08/24 01:35:08;;;;;;;2.05;1.10;;;;;;;22.93;81.99;101126.34;5005009;28;20104;-64
2023/08/24 01:37:34;;;;;;;0.93;0.73;;;;;;;22.92;81.68;101124.78;5001975;28;20040;-64
2023/08/24 01:40:20;;;;;;;2.75;0.80;;;;;;;22.92;81.96;101132.22;4995920;28;20048;-65
2023/08/24 01:42:55;;;;;;;0.70;0.68;;;;;;;22.79;81.81;101125.88;4989711;28;20120;-63
2023/08/24 01:45:24;;;;;;;1.75;0.80;;;;;;;22.75;81.80;101128.69;5020723;28;20034;-64
2023/08/24 01:47:52;;;;;;;1.88;1.08;;;;;;;22.74;81.70;101132.66;4991238;28;20033;-64
2023/08/24 01:50:18;;;;;;;1.13;0.77;;;;;;;22.71;82.00;101127.22;5010336;28;20037;-64
2023/08/24 01:52:44;;;;;;;1.85;0.80;;;;;;;22.57;81.93;101124.78;4995201;28;20096;-64
2023/08/24 01:55:11;;;;;;;1.77;0.88;;;;;;;22.54;82.67;101129.13;4991475;28;20405;-64
2023/08/24 01:57:37;;;;;;;1.00;0.70;;;;;;;22.54;82.37;101129.13;5013741;28;20116;-64
2023/08/24 02:00:09;;;;;;;3.10;1.52;;;;;;;22.47;82.66;101129.28;4997233;28;20045;-64
2023/08/24 02:02:39;;;;;;;2.88;1.00;;;;;;;22.47;83.28;101128.50;5022475;28;20040;-64
2023/08/24 02:05:05;;;;;;;2.05;1.10;;;;;;;22.43;83.15;101128.56;4991865;28;20050;-64
2023/08/24 02:07:30;;;;;;;1.88;1.00;;;;;;;22.43;83.24;101120.34;5012284;28;20109;-66
2023/08/24 02:09:56;;;;;;;2.25;1.10;;;;;;;22.43;83.04;101114.84;5016265;28;20025;-64
2023/08/24 02:12:21;;;;;;;1.38;0.98;;;;;;;22.43;83.28;101121.09;5002211;28;20030;-64
2023/08/24 02:14:48;;;;;;;2.28;1.10;;;;;;;22.49;83.13;101120.63;4993122;28;20653;-63
2023/08/24 02:17:15;;;;;;;1.05;0.75;;;;;;;22.49;83.11;101110.41;5010434;28;20489;-64
2023/08/24 02:19:41;;;;;;;1.08;0.93;;;;;;;22.43;83.33;101112.84;4996683;28;20037;-64
2023/08/24 02:22:08;;;;;;;1.33;0.70;;;;;;;22.43;83.74;101104.63;4993526;28;20427;-67
2023/08/24 02:24:33;;;;;;;1.48;0.88;;;;;;;22.33;83.50;101104.84;5000910;28;20048;-64
2023/08/24 02:26:59;;;;;;;3.00;0.95;;;;;;;22.26;83.58;101105.00;4994072;28;20065;-64
2023/08/24 02:29:25;;;;;;;1.40;0.90;;;;;;;22.14;84.35;101095.41;5008268;28;20105;-66
2023/08/24 02:31:50;;;;;;;1.85;0.98;;;;;;;22.00;84.32;101095.72;5016005;28;20037;-65
2023/08/24 02:34:16;;;;;;;1.65;0.88;;;;;;;21.95;84.87;101098.19;5008504;28;20046;-65
2023/08/24 02:36:42;;;;;;;3.97;0.98;;;;;;;21.82;85.63;101092.53;5010571;28;20066;-63
2023/08/24 02:39:07;;;;;;;2.95;1.20;;;;;;;21.86;85.43;101093.25;5010684;28;20022;-65
2023/08/24 02:41:34;;;;;;;1.23;0.88;;;;;;;21.85;85.38;101093.66;4977443;28;20410;-65
2023/08/24 02:43:59;;;;;;;1.42;0.90;;;;;;;21.84;85.46;101097.59;5003482;28;20065;-64
2023/08/24 02:46:25;;;;;;;1.20;1.05;;;;;;;21.81;85.10;101099.22;5010195;28;20065;-63
2023/08/24 02:48:50;;;;;;;4.78;1.20;;;;;;;21.68;86.52;101100.22;4994408;28;20030;-68
2023/08/24 02:51:17;;;;;;;1.33;1.00;;;;;;;21.67;86.33;101099.44;5011466;28;20026;-66
2023/08/24 02:53:43;;;;;;;2.00;0.85;;;;;;;21.57;87.68;101103.16;4991983;28;20042;-63
2023/08/24 02:56:08;;;;;;;1.73;1.02;;;;;;;21.65;87.15;101093.59;4994034;28;20061;-64
2023/08/24 02:58:34;;;;;;;1.00;0.88;;;;;;;21.75;87.07;101094.59;5001492;28;20026;-67
2023/08/24 03:01:06;;;;;;;2.65;1.13;;;;;;;21.77;86.89;101095.75;5007760;28;20048;-64
2023/08/24 03:03:31;;;;;;;1.95;1.00;;;;;;;21.56;87.70;101096.13;5010832;28;20033;-67
2023/08/24 03:05:59;;;;;;;2.67;1.05;;;;;;;21.60;87.77;101094.09;5015172;28;20037;-63
2023/08/24 03:08:27;;;;;;;4.32;1.48;;;;;;;21.65;87.77;101093.59;4996700;28;20108;-63
2023/08/24 03:10:53;;;;;;;2.30;1.30;;;;;;;21.66;87.39;101097.13;5007448;28;20381;-64
2023/08/24 03:13:18;;;;;;;3.38;2.13;;;;;;;21.64;87.22;101086.56;4992127;28;20117;-64
2023/08/24 03:15:47;;;;;;;2.80;1.40;;;;;;;21.67;87.06;101093.19;4991003;28;20026;-65
2023/08/24 03:18:13;;;;;;;5.25;1.35;;;;;;;21.64;87.37;101094.03;4996121;28;20456;-69
2023/08/24 03:20:40;;;;;;;7.10;1.30;;;;;;;21.63;87.55;101087.75;4998658;28;20359;-64
2023/08/24 03:23:06;;;;;;;1.58;0.95;;;;;;;21.60;87.73;101085.88;5020724;28;20042;-66
2023/08/24 03:25:36;;;;;;;1.60;0.90;;;;;;;21.71;87.32;101085.66;4994444;28;20039;-68
2023/08/24 03:28:02;;;;;;;1.58;0.98;;;;;;;21.67;87.18;101082.22;4992693;28;20038;-68
2023/08/24 03:30:48;;;;;;;2.72;1.15;;;;;;;21.60;87.09;101077.66;4980030;28;20037;-70
2023/08/24 03:33:14;;;;;;;2.50;1.08;;;;;;;21.38;87.84;101076.47;4929540;29;20044;-66
2023/08/24 03:35:40;;;;;;;1.92;1.15;;;;;;;21.37;87.76;101086.63;4918636;29;20178;-64
2023/08/24 03:38:05;;;;;;;2.22;1.20;;;;;;;21.35;87.57;101082.78;4934141;29;20138;-63
2023/08/24 03:40:31;;;;;;;1.85;1.40;;;;;;;21.30;87.70;101080.50;4932250;29;20504;-64
2023/08/24 03:42:57;;;;;;;1.58;1.02;;;;;;;21.19;87.69;101080.69;4921769;29;20056;-65
2023/08/24 03:45:22;;;;;;;3.83;1.38;;;;;;;21.09;88.22;101076.16;4914894;29;20036;-63
2023/08/24 03:47:48;;;;;;;3.55;0.93;;;;;;;21.11;88.15;101079.25;4926207;29;20051;-63
2023/08/24 03:50:14;;;;;;;1.95;1.17;;;;;;;21.07;88.46;101075.78;4928941;29;20036;-63
2023/08/24 03:52:40;;;;;;;1.52;1.02;;;;;;;21.04;88.78;101073.88;4913115;29;20031;-66
2023/08/24 03:55:08;;;;;;;1.98;0.98;;;;;;;21.03;88.75;101077.81;4931775;29;20032;-66
2023/08/24 03:57:34;;;;;;;2.53;1.30;;;;;;;20.98;88.75;101075.50;4930527;29;20099;-68
2023/08/24 04:00:04;;;;;;;2.65;1.55;;;;;;;20.95;88.89;101081.03;4914674;29;20118;-65
2023/08/24 04:02:39;;;;;;;1.92;1.30;;;;;;;20.93;89.11;101069.72;4927457;29;20102;-65
2023/08/24 04:05:05;;;;;;;2.28;1.42;;;;;;;20.78;89.93;101066.44;4933704;29;20512;-66
2023/08/24 04:07:31;;;;;;;2.30;1.38;;;;;;;20.87;90.27;101063.94;4933826;29;20050;-67
2023/08/24 04:09:56;;;;;;;2.67;1.30;;;;;;;20.80;90.42;101072.28;4939976;28;20630;-67
2023/08/24 04:12:22;;;;;;;2.08;1.20;;;;;;;20.90;89.76;101076.81;5008077;28;20046;-66
2023/08/24 04:14:48;;;;;;;2.20;1.30;;;;;;;20.86;90.05;101081.56;4995587;28;20467;-65
2023/08/24 04:17:14;;;;;;;2.40;1.42;;;;;;;20.85;90.01;101071.78;4984378;28;20403;-66
2023/08/24 04:19:39;;;;;;;3.00;1.50;;;;;;;20.82;89.96;101077.34;4997033;28;20029;-66
2023/08/24 04:22:05;;;;;;;3.60;1.33;;;;;;;20.78;90.28;101071.91;4991455;28;20030;-65
2023/08/24 04:24:31;;;;;;;2.58;1.13;;;;;;;20.71;90.51;101074.75;5006104;28;20487;-69
2023/08/24 04:26:57;;;;;;;3.30;1.30;;;;;;;20.69;90.72;101082.63;5012896;28;20044;-66
2023/08/24 04:29:22;;;;;;;3.30;1.45;;;;;;;20.70;90.68;101075.94;5035913;22;20042;-69
2023/08/24 04:31:48;;;;;;;4.40;2.10;;;;;;;20.69;90.73;101074.41;5027275;28;20096;-69
2023/08/24 04:34:13;;;;;;;2.75;1.63;;;;;;;20.53;91.73;101066.00;5034323;28;20049;-68
2023/08/24 04:36:39;;;;;;;2.80;1.48;;;;;;;20.66;91.37;101064.25;5042114;28;20042;-69
2023/08/24 04:39:04;;;;;;;2.28;1.23;;;;;;;20.67;91.16;101055.63;5032121;28;20029;-68
2023/08/24 04:41:30;;;;;;;1.33;1.10;;;;;;;20.71;91.32;101060.28;5030260;28;20034;-68
2023/08/24 04:43:55;;;;;;;3.85;2.00;;;;;;;20.80;91.01;101075.00;5030283;28;20060;-69
2023/08/24 04:46:21;;;;;;;3.15;1.42;;;;;;;20.79;90.72;101067.22;5031694;28;20478;-69
2023/08/24 04:48:46;;;;;;;2.05;1.45;;;;;;;20.84;91.08;101069.47;5030720;28;20508;-68
2023/08/24 04:51:11;;;;;;;1.92;1.30;;;;;;;20.97;90.34;101076.69;5019631;28;20402;-68
2023/08/24 04:53:37;;;;;;;2.70;1.42;;;;;;;20.98;90.49;101075.50;5029170;28;20074;-69
2023/08/24 04:56:02;;;;;;;2.17;0.82;;;;;;;20.99;89.95;101087.25;5013493;28;20036;-69
2023/08/24 04:58:28;;;;;;;2.20;1.17;;;;;;;21.07;89.41;101094.97;5028313;28;20037;-68
2023/08/24 05:00:55;;;;;;;2.65;1.25;;;;;;;21.01;89.59;101106.81;5028465;28;20061;-69
2023/08/24 05:03:21;;;;;;;1.48;1.08;;;;;;;21.05;89.39;101102.84;5031302;28;20424;-68
2023/08/24 05:05:47;;;;;;;2.00;1.08;;;;;;;21.00;89.27;101099.75;5031133;28;20026;-69
2023/08/24 05:08:13;;;;;;;1.42;1.15;;;;;;;20.99;88.96;101092.72;5031210;28;20053;-69
2023/08/24 05:10:38;;;;;;;7.30;1.40;;;;;;;20.98;89.50;101091.94;4991966;28;20037;-69
2023/08/24 05:13:04;;;;;;;1.75;1.33;;;;;;;21.00;89.54;101091.53;5008688;28;20040;-69
2023/08/24 05:15:30;;;;;;;1.88;1.30;;;;;;;20.95;89.28;101097.47;5012655;28;20375;-69
2023/08/24 05:17:56;;;;;;;4.47;1.40;;;;;;;21.03;89.41;101099.72;5030662;28;20037;-69
2023/08/24 05:20:28;;;;;;;1.33;1.15;;;;;;;21.08;88.97;101102.00;5025724;28;20585;-69
2023/08/24 05:22:54;;;;;;;3.30;1.15;;;;;;;21.06;88.83;101098.13;5026436;28;20381;-69
2023/08/24 05:25:21;;;;;;;1.50;1.00;;;;;;;21.04;89.30;101101.25;5029910;28;20040;-69
2023/08/24 05:27:47;;;;;;;1.88;1.40;;;;;;;21.08;89.00;101102.00;5030889;28;20045;-69
2023/08/24 05:30:33;;;;;;;4.53;2.10;;;;;;;20.83;90.18;101101.56;5013964;28;20021;-69
2023/08/24 05:32:58;;;;;;;3.88;1.95;;;;;;;20.88;90.61;101106.59;4985215;28;20054;-70
2023/08/24 05:35:26;;;;;;;5.22;1.95;;;;;;;20.90;90.50;101112.44;4981280;28;20092;-70
2023/08/24 05:37:52;;;;;;;2.90;1.63;;;;;;;20.90;90.53;101104.22;4989398;28;20082;-70
2023/08/24 05:40:17;;;;;;;2.00;1.40;;;;;;;20.88;90.44;101101.09;4989221;28;20049;-70
2023/08/24 05:42:43;;;;;;;2.90;1.20;;;;;;;20.89;90.71;101102.66;4969514;28;20459;-69
2023/08/24 05:45:08;;;;;;;2.38;1.52;;;;;;;20.96;90.85;101107.25;4984101;28;20096;-70
2023/08/24 05:47:34;;;;;;;3.33;1.63;;;;;;;20.97;90.57;101112.31;4989612;28;20034;-68
2023/08/24 05:49:59;;;;;;;2.67;1.75;;;;;;;20.98;90.59;101105.63;4989713;28;20483;-69
2023/08/24 05:52:25;;;;;;;3.45;1.85;;;;;;;21.08;90.72;101107.47;4986941;28;20034;-69
2023/08/24 05:54:51;;;;;;;4.20;2.30;;;;;;;21.10;90.32;101116.06;4981057;28;20026;-69
2023/08/24 05:57:16;;;;;;;3.47;1.75;;;;;;;21.02;91.18;101109.13;4989601;28;20062;-69
2023/08/24 05:59:41;;;;;;;5.10;2.22;;;;;;;21.11;91.11;101114.09;4989467;28;20133;-68
2023/08/24 06:02:07;;;;;;;2.42;1.70;;;;;;;21.24;90.36;101126.00;4969467;28;20094;-69
2023/08/24 06:04:32;;;;;;;2.95;1.38;;;;;;;21.34;89.79;101114.09;4989110;28;20073;-69
2023/08/24 06:06:58;;;;;;;3.15;1.70;;;;;;;21.26;89.75;101101.72;4972977;28;20030;-68
2023/08/24 06:09:23;;;;;;;4.22;1.60;;;;;;;21.31;89.75;101107.50;4999378;28;20438;-67
2023/08/24 06:11:49;;;;;;;2.80;1.40;;;;;;;21.46;89.22;101116.25;5025878;28;20064;-69
2023/08/24 06:14:15;;;;;;;1.58;1.35;;;;;;;21.49;88.88;101105.25;5013081;28;20030;-69
2023/08/24 06:16:40;;;;;;;3.95;1.48;;;;;;;21.55;88.16;101102.78;5031344;28;20086;-68
2023/08/24 06:19:06;;;;;;;1.45;1.15;;;;;;;21.61;88.04;101105.81;5031179;28;20029;-68
2023/08/24 06:21:31;;;;;;;1.52;0.85;;;;;;;21.59;86.67;101103.50;5010496;28;20447;-68
2023/08/24 06:23:56;;;;;;;1.60;0.80;;;;;;;21.50;87.09;101106.03;5009376;28;20798;-69
2023/08/24 06:26:22;;;;;;;1.38;1.08;;;;;;;21.63;87.09;101112.44;5030719;28;20061;-67
2023/08/24 06:28:48;;;;;;;1.45;0.98;;;;;;;21.76;86.59;101096.91;5029481;28;20052;-69
2023/08/24 06:31:14;;;;;;;2.47;1.52;;;;;;;21.91;86.49;101098.22;5031221;28;20033;-69
2023/08/24 06:33:40;;;;;;;3.17;1.40;;;;;;;22.02;86.10;101087.84;5012420;28;20051;-69
2023/08/24 06:36:05;;;;;;;3.35;1.42;;;;;;;22.20;85.21;101084.75;4993391;28;20018;-69
2023/08/24 06:38:31;;;;;;;2.10;1.35;;;;;;;22.31;84.50;101091.56;5031069;28;20041;-68
2023/08/24 06:41:00;;;;;;;3.55;1.23;;;;;;;22.64;82.83;101080.69;5030715;28;20037;-68
2023/08/24 06:43:26;;;;;;;1.02;0.77;;;;;;;22.82;82.29;101067.34;5028302;28;20516;-67
2023/08/24 06:45:52;;;;;;;0.82;0.77;;;;;;;22.90;81.55;101063.97;5028924;28;20026;-69
2023/08/24 06:48:18;;;;;;;0.82;0.70;;;;;;;22.94;80.38;101072.91;5031187;28;20539;-69
2023/08/24 06:50:44;;;;;;;0.80;0.73;;;;;;;23.08;80.30;101069.03;5012730;28;20030;-68
2023/08/24 06:53:09;;;;;;;1.23;1.05;;;;;;;23.33;80.55;101074.72;5027496;28;20374;-69
2023/08/24 06:55:36;;;;;;;1.35;1.08;;;;;;;23.54;80.08;101079.69;5030077;28;20045;-68
2023/08/24 06:58:05;;;;;;;1.10;0.63;;;;;;;23.66;78.63;101076.22;5030739;28;20094;-69
2023/08/24 07:00:31;;;;;;;1.48;0.80;;;;;;;23.83;77.73;101074.19;5027489;28;20033;-68
2023/08/24 07:02:57;;;;;;;0.57;0.57;;;;;;;23.96;76.86;101070.28;5011995;28;20045;-69
2023/08/24 07:05:22;;;;;;;1.77;0.63;;;;;;;24.14;76.54;101073.34;5029968;28;20490;-68
2023/08/24 07:07:53;;;;;;;0.90;0.55;;;;;;;23.91;75.60;101068.06;5030199;28;20032;-69
2023/08/24 07:10:19;;;;;;;6.13;0.65;;;;;;;24.23;75.60;101063.66;5030496;28;20048;-69
2023/08/24 07:12:45;;;;;;;2.08;0.60;;;;;;;24.34;74.59;101053.88;5008478;28;20037;-68
2023/08/24 07:15:11;;;;;;;0.52;0.50;;;;;;;24.55;74.26;101050.47;5012486;28;20068;-68
2023/08/24 07:17:37;;;;;;;1.67;0.73;;;;;;;24.66;72.96;101058.44;5030594;28;20033;-68
2023/08/24 07:20:05;;;;;;;0.75;0.60;;;;;;;24.43;72.73;101065.00;5008952;28;20034;-68
2023/08/24 07:22:31;;;;;;;1.10;0.50;;;;;;;24.49;72.92;101048.69;5028798;28;20509;-69
2023/08/24 07:24:56;;;;;;;1.90;0.50;;;;;;;24.43;70.54;101051.25;5012406;28;20085;-69
2023/08/24 07:27:22;;;;;;;0.63;0.47;;;;;;;24.57;72.44;101056.31;5007696;28;20133;-68
2023/08/24 07:29:47;;;;;;;0.75;0.35;;;;;;;24.72;71.54;101062.19;5012334;28;20115;-70
2023/08/24 07:32:13;;;;;;;0.25;0.25;;;;;;;24.80;72.30;101058.78;5029639;28;20137;-69
2023/08/24 07:34:38;;;;;;;1.23;0.43;;;;;;;25.09;71.94;101063.38;4996338;28;20041;-68
2023/08/24 07:37:04;;;;;;;1.60;0.45;;;;;;;25.17;70.93;101065.44;5026313;28;20040;-68
2023/08/24 07:39:29;;;;;;;1.40;0.30;;;;;;;24.71;69.82;101063.38;5029839;28;20546;-69
2023/08/24 07:41:55;;;;;;;0.30;0.20;;;;;;;24.86;70.82;101062.53;4998962;28;20037;-69
2023/08/24 07:44:21;;;;;;;0.30;0.30;;;;;;;25.14;69.73;101055.31;5029183;28;20037;-69
2023/08/24 07:46:49;;;;;;;0.73;0.40;;;;;;;25.24;67.95;101056.19;5033479;28;20038;-69
2023/08/24 07:49:15;;;;;;;0.50;0.50;;;;;;;25.47;68.26;101067.63;5015735;28;20089;-69
2023/08/24 07:51:42;;;;;;;0.28;0.22;;;;;;;25.70;68.88;101055.38;5011754;28;20112;-69
2023/08/24 07:54:08;;;;;;;0.13;0.13;;;;;;;25.95;67.90;101058.03;5012211;28;20041;-67
2023/08/24 07:56:34;;;;;;;0.60;0.40;;;;;;;26.16;66.91;101056.47;5033891;28;20029;-69
2023/08/24 07:58:59;;;;;;;0.70;0.43;;;;;;;26.24;64.82;101055.78;5015866;28;20091;-68
2023/08/24 08:01:25;;;;;;;1.73;0.30;;;;;;;26.23;63.91;101053.47;5013023;28;20061;-69
2023/08/24 08:03:50;;;;;;;0.77;0.45;;;;;;;26.31;65.10;101052.72;5032510;28;20029;-70
2023/08/24 08:06:16;;;;;;;0.80;0.40;;;;;;;26.54;65.14;101055.00;5015790;28;20033;-69
2023/08/24 08:08:42;;;;;;;0.52;0.38;;;;;;;26.35;63.08;101056.13;5027717;28;20406;-68
2023/08/24 08:11:07;;;;;;;0.40;0.30;;;;;;;26.33;61.36;101061.34;5027991;28;20160;-69
2023/08/24 08:13:33;;;;;;;2.20;0.40;;;;;;;26.33;61.86;101068.84;5011604;28;20033;-69
2023/08/24 08:16:05;;;;;;;0.40;0.30;;;;;;;25.86;62.01;101060.72;5033410;28;20025;-69
2023/08/24 08:18:35;;;;;;;1.48;0.50;;;;;;;25.96;62.06;101053.28;5006966;28;20030;-69
2023/08/24 08:21:02;;;;;;;0.30;0.30;;;;;;;25.77;62.55;101057.88;5029150;28;20494;-69
2023/08/24 08:23:27;;;;;;;1.02;0.35;;;;;;;25.46;63.53;101045.97;5014416;28;20030;-68
2023/08/24 08:25:53;;;;;;;1.02;0.60;;;;;;;25.36;62.96;101038.81;5015581;28;20033;-69
2023/08/24 08:28:18;;;;;;;0.50;0.40;;;;;;;25.91;63.97;101041.59;5033482;28;20428;-69
2023/08/24 08:30:45;;;;;;;0.93;0.32;;;;;;;26.43;62.03;101054.66;5030278;28;20045;-70
2023/08/24 08:33:12;;;;;;;0.47;0.40;;;;;;;26.15;59.65;101041.16;5031038;28;20025;-69
2023/08/24 08:35:40;;;;;;;1.00;0.30;;;;;;;26.25;61.93;101046.25;5032367;28;20064;-70
2023/08/24 08:38:07;;;;;;;0.70;0.38;;;;;;;26.22;59.54;101043.63;5028492;28;20080;-69
2023/08/24 08:40:36;;;;;;;0.30;0.30;;;;;;;26.42;60.66;101047.56;5013742;28;20064;-70
2023/08/24 08:43:02;;;;;;;0.90;0.30;;;;;;;26.85;60.29;101029.34;5031634;28;20037;-70
2023/08/24 08:45:28;;;;;;;0.20;0.20;;;;;;;27.24;58.28;101028.47;5028717;28;20029;-70
2023/08/24 08:48:03;;;;;;;1.23;0.52;;;;;;;26.76;58.41;101038.38;5013705;28;20396;-70
2023/08/24 08:50:31;;;;;;;0.70;0.40;;;;;;;25.89;59.44;101032.22;5031901;28;20051;-69
2023/08/24 08:52:58;;;;;;;0.30;0.28;;;;;;;25.86;61.29;101020.06;5021287;28;20052;-69
2023/08/24 08:55:25;;;;;;;0.55;0.50;;;;;;;26.68;59.55;101026.81;5029640;28;20041;-69
2023/08/24 08:57:58;;;;;;;0.30;0.30;;;;;;;26.93;58.93;101025.03;5026670;28;20034;-68
2023/08/24 09:00:24;;;;;;;0.40;0.40;;;;;;;27.09;59.36;101024.75;5028767;28;20033;-70
2023/08/24 09:02:52;;;;;;;0.65;0.30;;;;;;;27.47;58.02;101022.34;5025569;28;20095;-69
2023/08/24 09:05:19;;;;;;;0.57;0.40;;;;;;;27.04;58.25;101022.63;5013866;28;20497;-69
2023/08/24 09:07:47;;;;;;;0.88;0.50;;;;;;;27.27;58.03;101027.56;5022690;28;20600;-69
2023/08/24 09:10:12;;;;;;;0.60;0.35;;;;;;;27.59;57.61;101019.44;5024657;28;20036;-69
2023/08/24 09:12:38;;;;;;;0.40;0.30;;;;;;;27.58;55.64;101020.66;5023212;28;20029;-69
2023/08/24 09:15:07;;;;;;;2.83;0.30;;;;;;;27.55;57.43;101020.81;5022565;28;20040;-70
2023/08/24 09:17:34;;;;;;;1.10;0.75;;;;;;;27.92;57.32;101008.47;5024665;28;20042;-70
2023/08/24 09:20:09;;;;;;;0.55;0.43;;;;;;;27.82;55.60;101018.03;5029914;28;20492;-69
2023/08/24 09:22:37;;;;;;;0.45;0.38;;;;;;;27.89;54.39;101023.25;5022520;28;20045;-69
2023/08/24 09:25:04;;;;;;;0.50;0.20;;;;;;;28.35;53.00;101021.16;5025385;28;20047;-70
2023/08/24 09:27:34;;;;;;;3.47;0.50;;;;;;;28.63;52.50;101021.81;5027844;28;20024;-70
2023/08/24 09:29:59;;;;;;;0.40;0.40;;;;;;;28.92;51.70;101024.75;5011967;28;20083;-70
2023/08/24 09:32:29;;;;;;;0.63;0.38;;;;;;;28.98;51.63;101033.94;5031492;28;20025;-69
2023/08/24 09:34:55;;;;;;;1.05;0.38;;;;;;;29.38;52.14;101034.31;5027836;28;20084;-69
2023/08/24 09:37:21;;;;;;;0.43;0.28;;;;;;;29.72;50.45;101030.19;5028036;28;20037;-69
2023/08/24 09:39:47;;;;;;;0.68;0.40;;;;;;;29.88;50.50;101038.06;5029543;28;20038;-69
2023/08/24 09:42:24;;;;;;;1.05;0.32;;;;;;;29.76;48.06;101042.66;5027586;28;20040;-70
2023/08/24 09:44:49;;;;;;;0.20;0.20;;;;;;;29.66;49.94;101043.94;5008103;28;20570;-69
2023/08/24 09:47:15;;;;;;;1.30;0.40;;;;;;;30.12;49.54;101033.19;5026865;28;20037;-70
2023/08/24 09:49:41;;;;;;;2.25;0.30;;;;;;;30.23;48.63;101028.56;5028938;28;20093;-69
2023/08/24 09:52:08;;;;;;;0.32;0.30;;;;;;;30.44;48.81;101037.00;5024852;28;20283;-69
2023/08/24 09:54:36;;;;;;;1.88;0.30;;;;;;;30.43;48.20;101024.34;5028362;28;20443;-69
2023/08/24 09:57:04;;;;;;;0.20;0.20;;;;;;;30.53;49.28;101022.97;5020854;28;20474;-70
2023/08/24 09:59:32;;;;;;;0.30;0.30;;;;;;;30.68;48.54;101009.78;5025627;28;20129;-70
2023/08/24 10:02:01;;;;;;;0.30;0.20;;;;;;;30.76;48.28;100999.78;5028646;28;20116;-69
2023/08/24 10:04:32;;;;;;;0.60;0.30;;;;;;;30.72;48.64;100999.22;5025601;28;20067;-69
2023/08/24 10:07:05;;;;;;;1.00;0.45;;;;;;;30.99;48.17;101004.44;5030083;28;20067;-69
2023/08/24 10:09:50;;;;;;;0.50;0.43;;;;;;;30.92;47.47;101000.03;5028971;28;20026;-69
2023/08/24 10:12:20;;;;;;;1.10;0.30;;;;;;;30.92;48.01;100997.25;5023399;28;20049;-69
2023/08/24 10:14:59;;;;;;;0.43;0.40;;;;;;;30.27;48.46;100990.22;5028009;28;20052;-70
2023/08/24 10:17:25;;;;;;;1.98;0.30;;;;;;;30.51;49.79;100987.28;5009836;28;20497;-69
2023/08/24 10:19:51;;;;;;;0.43;0.40;;;;;;;30.76;49.57;100988.66;5030481;28;20036;-69
2023/08/24 10:22:19;;;;;;;0.52;0.52;;;;;;;31.05;48.69;100980.19;5028697;28;20047;-69
2023/08/24 10:24:47;;;;;;;0.30;0.22;;;;;;;31.25;49.34;100982.19;5027013;28;20399;-71
2023/08/24 10:27:14;;;;;;;1.30;0.40;;;;;;;30.70;47.87;100985.03;5010537;28;20034;-70
2023/08/24 10:29:39;;;;;;;0.60;0.47;;;;;;;30.31;48.44;100980.94;5020596;22;20469;-67
2023/08/24 10:32:26;;;;;;;1.65;0.60;;;;;;;30.78;48.76;100988.91;5005270;28;20069;-67
2023/08/24 10:34:51;;;;;;;1.23;0.40;;;;;;;30.78;48.13;100986.91;4972769;28;20035;-67
2023/08/24 10:37:24;;;;;;;0.63;0.38;;;;;;;30.81;48.32;100971.25;4975953;28;20411;-67
2023/08/24 10:39:49;;;;;;;0.28;0.28;;;;;;;31.16;48.52;100946.16;4964235;28;20051;-66
2023/08/24 10:42:15;;;;;;;0.73;0.40;;;;;;;31.15;48.04;100939.81;4944288;28;20049;-67
2023/08/24 10:44:45;;;;;;;0.82;0.30;;;;;;;31.19;47.91;100940.34;4961647;28;20035;-67
2023/08/24 10:47:15;;;;;;;0.75;0.43;;;;;;;31.46;47.93;100934.34;4949189;28;20050;-67
2023/08/24 10:49:42;;;;;;;0.77;0.60;;;;;;;31.78;48.08;100940.72;4962198;28;20039;-67
2023/08/24 10:52:19;;;;;;;1.02;0.70;;;;;;;31.98;46.77;100928.72;4961154;28;20070;-67
2023/08/24 10:54:49;;;;;;;0.63;0.60;;;;;;;32.02;47.04;100934.84;4956576;28;20043;-67
2023/08/24 10:57:23;;;;;;;0.60;0.47;;;;;;;32.21;46.53;100935.97;4957326;28;20128;-67
2023/08/24 11:00:05;;;;;;;0.30;0.30;;;;;;;32.43;46.65;100936.09;4964730;28;20047;-66
2023/08/24 11:02:40;;;;;;;1.42;0.50;;;;;;;32.48;45.92;100933.38;4953137;28;20412;-67
2023/08/24 11:05:28;;;;;;;0.95;0.50;;;;;;;32.61;46.34;100928.13;4955461;28;20057;-67
2023/08/24 11:07:59;;;;;;;0.73;0.40;;;;;;;32.69;45.80;100920.81;4960161;28;20035;-67
2023/08/24 11:10:31;;;;;;;0.57;0.40;;;;;;;32.71;45.45;100923.09;4964102;28;20392;-67
2023/08/24 11:13:03;;;;;;;1.35;0.50;;;;;;;32.78;45.96;100917.78;4990711;28;20398;-67
2023/08/24 11:15:42;;;;;;;1.27;0.60;;;;;;;32.98;45.99;100924.47;4986407;28;20042;-67
2023/08/24 11:18:14;;;;;;;1.90;0.50;;;;;;;32.98;45.08;100916.88;4992735;28;20034;-66
2023/08/24 11:20:47;;;;;;;1.77;0.60;;;;;;;32.94;46.00;100907.94;4989180;28;20034;-67
2023/08/24 11:23:14;;;;;;;1.65;0.38;;;;;;;32.78;45.85;100905.84;4990023;28;20025;-67
2023/08/24 11:25:40;;;;;;;1.75;0.50;;;;;;;32.68;45.97;100885.78;4988376;28;20384;-67